Terminal Aerodrome Forecast
Issued by NWS Jackson, MS

Home | Current Version | Previous Version | Text Only | Print | Product List | Glossary On
Versions: 1 2 3 4 5 6 7 8 9 10 11 12 13 14 15 16
117
FTUS44 KMEG 180525
TAFTUP
TAF
KTUP 180525Z 1806/1906 01006KT P6SM SCT008 OVC015
     FM181200 03004KT 4SM BR SCT002 SCT015
     FM181500 07005KT P6SM SCT015 BKN250
     FM182000 18009KT P6SM VCSH BKN025 OVC100
     FM190100 17007KT 6SM -SHRA BKN009 OVC015=

USA.gov is the U.S. government's official web portal to all federal, state and local government web resources and services.